Time;durP1;ratioP1;P1;durP2;ratioP2;P2;SDS_P1;SDS_P2;PMS_P1;PMS_P2;Temp;Humidity;BMP_temperature;BMP_pressure;BME280_temperature;BME280_humidity;BME280_pressure;Samples;Min_cycle;Max_cycle;Signal;HPM_P1;HPM_P2
2023/08/10 00:00:14;;;;;;;5.30;2.50;;;16.90;30.40;;;;;;5009360;28;20972;-64
2023/08/10 00:02:41;;;;;;;6.83;3.63;;;16.90;30.90;;;;;;5003229;28;20650;-62
2023/08/10 00:05:09;;;;;;;5.00;2.30;;;16.90;31.00;;;;;;5009644;28;20464;-62
2023/08/10 00:07:36;;;;;;;4.63;2.43;;;16.90;31.10;;;;;;5003632;28;20491;-62
2023/08/10 00:10:08;;;;;;;5.93;2.77;;;16.90;31.20;;;;;;5004750;28;20456;-62
2023/08/10 00:12:35;;;;;;;7.97;2.70;;;16.90;31.20;;;;;;5006208;28;20579;-62
2023/08/10 00:15:02;;;;;;;5.13;2.70;;;16.90;31.20;;;;;;5004996;28;20468;-62
2023/08/10 00:17:29;;;;;;;5.10;2.40;;;16.90;31.20;;;;;;5006119;28;20573;-62
2023/08/10 00:19:56;;;;;;;5.90;2.93;;;16.90;31.10;;;;;;5005635;28;20479;-62
2023/08/10 00:22:23;;;;;;;5.20;2.87;;;16.90;31.10;;;;;;5002460;28;21004;-62
2023/08/10 00:24:49;;;;;;;6.37;3.07;;;16.90;31.30;;;;;;5006555;28;20475;-62
2023/08/10 00:27:17;;;;;;;6.27;3.43;;;16.80;31.40;;;;;;5008954;28;21155;-62
2023/08/10 00:29:45;;;;;;;5.60;2.93;;;16.80;31.70;;;;;;5006320;28;20498;-63
2023/08/10 00:32:12;;;;;;;6.17;3.10;;;16.80;31.60;;;;;;5000556;28;20471;-63
2023/08/10 00:34:38;;;;;;;6.20;3.30;;;16.80;31.70;;;;;;5005852;28;20495;-63
2023/08/10 00:37:05;;;;;;;5.30;2.93;;;16.80;31.80;;;;;;5004018;28;20881;-63
2023/08/10 00:39:32;;;;;;;5.67;3.37;;;16.90;31.90;;;;;;5000749;28;20484;-63
2023/08/10 00:41:59;;;;;;;6.17;2.70;;;16.90;31.90;;;;;;5004643;28;20484;-63
2023/08/10 00:44:27;;;;;;;5.77;2.93;;;16.90;31.90;;;;;;5007582;28;20463;-63
2023/08/10 00:46:53;;;;;;;6.17;3.13;;;16.80;31.90;;;;;;5004746;28;20464;-63
2023/08/10 00:49:20;;;;;;;7.03;3.57;;;16.80;32.00;;;;;;5003052;28;20486;-63
2023/08/10 00:51:47;;;;;;;6.17;3.40;;;16.70;32.10;;;;;;5004541;28;20463;-63
2023/08/10 00:54:14;;;;;;;6.87;2.90;;;16.70;32.10;;;;;;5003315;28;20467;-63
2023/08/10 00:56:41;;;;;;;5.60;3.30;;;16.70;31.90;;;;;;4998881;28;20463;-63
2023/08/10 00:59:08;;;;;;;5.87;3.13;;;16.60;31.90;;;;;;5006230;28;20459;-63
2023/08/10 01:01:36;;;;;;;4.87;2.87;;;16.60;32.00;;;;;;5006249;28;20838;-63
2023/08/10 01:04:02;;;;;;;6.30;3.10;;;16.60;32.00;;;;;;5005701;28;20467;-63
2023/08/10 01:06:39;;;;;;;5.60;3.07;;;16.60;32.10;;;;;;5005567;28;20948;-63
2023/08/10 01:09:14;;;;;;;4.70;2.47;;;16.60;32.00;;;;;;5005016;28;20460;-63
2023/08/10 01:11:44;;;;;;;5.10;2.77;;;16.60;31.80;;;;;;5004541;28;20537;-63
2023/08/10 01:14:17;;;;;;;6.63;2.67;;;16.50;31.20;;;;;;5005231;28;20466;-63
2023/08/10 01:16:45;;;;;;;5.13;2.63;;;16.50;31.00;;;;;;5011828;28;20977;-63
2023/08/10 01:19:24;;;;;;;5.50;2.37;;;16.50;30.90;;;;;;5008554;28;20463;-63
2023/08/10 01:22:00;;;;;;;5.20;2.67;;;16.50;30.80;;;;;;5010841;28;20476;-63
2023/08/10 01:24:33;;;;;;;5.87;2.80;;;16.50;30.60;;;;;;5004430;28;20463;-63
2023/08/10 01:27:02;;;;;;;6.50;2.97;;;16.50;29.60;;;;;;5007619;28;20463;-62
2023/08/10 01:29:30;;;;;;;5.60;3.13;;;16.50;30.00;;;;;;5006789;28;20839;-64
2023/08/10 01:31:56;;;;;;;5.70;3.37;;;16.50;30.40;;;;;;5008636;28;20479;-64
2023/08/10 01:34:23;;;;;;;6.03;2.80;;;16.40;30.90;;;;;;5002133;28;20463;-64
2023/08/10 01:36:50;;;;;;;6.10;3.03;;;16.40;30.90;;;;;;5005883;28;20470;-65
2023/08/10 01:39:16;;;;;;;6.40;3.27;;;16.40;31.00;;;;;;5005395;28;20468;-64
2023/08/10 01:41:43;;;;;;;7.70;3.17;;;16.30;31.20;;;;;;5009648;28;20590;-62
2023/08/10 01:44:11;;;;;;;5.70;2.60;;;16.30;31.50;;;;;;5008161;28;20964;-64
2023/08/10 01:46:40;;;;;;;5.87;3.63;;;16.30;31.60;;;;;;5008027;28;20526;-64
2023/08/10 01:49:10;;;;;;;5.63;3.13;;;16.20;31.70;;;;;;5009294;28;20463;-64
2023/08/10 01:51:40;;;;;;;5.57;3.60;;;16.20;31.80;;;;;;5006905;28;20467;-65
2023/08/10 01:54:08;;;;;;;5.93;3.27;;;16.20;31.80;;;;;;5007003;28;20461;-64
2023/08/10 01:56:35;;;;;;;6.47;3.83;;;16.20;31.60;;;;;;5007179;28;20464;-65
2023/08/10 01:59:02;;;;;;;7.03;3.00;;;16.20;31.50;;;;;;5005087;28;20492;-62
2023/08/10 02:01:30;;;;;;;5.83;3.30;;;16.20;31.40;;;;;;5007830;28;22827;-62
2023/08/10 02:03:57;;;;;;;5.17;2.80;;;16.20;31.30;;;;;;5002062;28;20971;-63
2023/08/10 02:06:24;;;;;;;5.50;3.27;;;16.10;31.30;;;;;;5013495;28;20495;-63
2023/08/10 02:08:51;;;;;;;5.50;3.20;;;16.10;31.30;;;;;;5009356;28;20872;-63
2023/08/10 02:11:17;;;;;;;5.60;3.53;;;16.10;31.20;;;;;;5007541;28;20464;-63
2023/08/10 02:13:44;;;;;;;5.50;3.10;;;16.10;31.00;;;;;;5004657;28;20463;-63
2023/08/10 02:16:11;;;;;;;6.70;4.00;;;16.10;31.00;;;;;;5006867;28;20460;-63
2023/08/10 02:18:39;;;;;;;5.30;2.90;;;16.10;31.00;;;;;;5008282;28;20483;-63
2023/08/10 02:21:06;;;;;;;7.30;3.10;;;16.10;31.10;;;;;;5004125;28;20490;-63
2023/08/10 02:23:35;;;;;;;7.33;3.00;;;16.10;31.30;;;;;;5010373;28;20507;-63
2023/08/10 02:26:01;;;;;;;6.80;3.13;;;16.10;31.40;;;;;;5002760;28;21181;-63
2023/08/10 02:28:28;;;;;;;10.17;3.57;;;16.10;31.60;;;;;;5016516;22;20667;-64
2023/08/10 02:30:55;;;;;;;5.60;3.63;;;16.10;31.80;;;;;;4997137;28;20477;-64
2023/08/10 02:33:22;;;;;;;7.50;3.23;;;16.10;32.00;;;;;;4994908;28;20607;-64
2023/08/10 02:35:50;;;;;;;5.53;3.17;;;16.10;32.10;;;;;;4998045;28;20460;-64
2023/08/10 02:38:17;;;;;;;7.60;4.10;;;16.00;32.10;;;;;;4988825;28;20493;-64
2023/08/10 02:40:44;;;;;;;5.17;3.27;;;16.10;32.10;;;;;;4991780;28;20467;-64
2023/08/10 02:43:11;;;;;;;6.20;3.03;;;16.00;32.10;;;;;;4991433;28;20476;-64
2023/08/10 02:45:38;;;;;;;7.67;3.63;;;16.00;32.20;;;;;;4990841;28;21118;-64
2023/08/10 02:48:05;;;;;;;5.90;3.23;;;16.00;32.10;;;;;;4988124;28;20484;-64
2023/08/10 02:50:32;;;;;;;9.17;3.47;;;16.00;32.20;;;;;;4989900;28;20996;-64
2023/08/10 02:53:00;;;;;;;7.23;4.00;;;16.00;32.30;;;;;;4989786;28;20461;-64
2023/08/10 02:55:27;;;;;;;7.57;4.10;;;15.90;32.40;;;;;;4987518;28;20860;-63
2023/08/10 02:57:54;;;;;;;9.70;3.30;;;16.00;32.40;;;;;;4991369;28;20567;-63
2023/08/10 03:00:20;;;;;;;5.03;2.90;;;16.00;32.30;;;;;;4991829;28;20468;-63
2023/08/10 03:02:50;;;;;;;7.70;3.40;;;16.00;32.20;;;;;;4985989;28;20476;-62
2023/08/10 03:05:17;;;;;;;4.87;3.20;;;16.00;32.20;;;;;;4988385;28;20498;-62
2023/08/10 03:07:44;;;;;;;5.70;3.37;;;15.90;32.20;;;;;;4990354;28;20489;-63
2023/08/10 03:10:13;;;;;;;5.60;3.53;;;15.90;32.10;;;;;;4993593;28;20828;-63
2023/08/10 03:12:39;;;;;;;6.63;2.90;;;15.90;32.00;;;;;;4994732;28;20463;-63
2023/08/10 03:15:09;;;;;;;5.50;3.30;;;15.90;32.00;;;;;;4989270;28;20460;-63
2023/08/10 03:17:36;;;;;;;7.60;3.10;;;15.80;32.00;;;;;;4991576;28;20481;-63
2023/08/10 03:20:09;;;;;;;5.90;3.40;;;15.80;32.00;;;;;;4991512;28;20894;-62
2023/08/10 03:22:38;;;;;;;7.10;3.30;;;15.80;32.10;;;;;;4989643;28;20488;-63
2023/08/10 03:25:06;;;;;;;5.20;3.10;;;15.80;32.20;;;;;;4993659;28;20475;-63
2023/08/10 03:27:34;;;;;;;7.00;3.13;;;15.80;32.50;;;;;;4990819;28;20847;-64
2023/08/10 03:30:01;;;;;;;5.60;3.40;;;15.80;32.50;;;;;;4988209;28;20535;-63
2023/08/10 03:32:27;;;;;;;5.70;3.20;;;15.80;32.70;;;;;;4989389;28;20531;-63
2023/08/10 03:34:54;;;;;;;6.00;3.63;;;15.80;32.80;;;;;;4994045;28;20477;-64
2023/08/10 03:37:21;;;;;;;9.87;6.70;;;15.90;33.00;;;;;;4990155;28;20489;-63
2023/08/10 03:39:47;;;;;;;9.57;8.40;;;15.80;33.10;;;;;;4989552;28;20471;-64
2023/08/10 03:42:14;;;;;;;10.27;7.87;;;15.80;33.00;;;;;;4987102;28;20484;-64
2023/08/10 03:44:42;;;;;;;8.40;6.10;;;15.80;33.00;;;;;;4989129;28;20468;-64
2023/08/10 03:47:09;;;;;;;7.50;4.80;;;15.80;33.20;;;;;;4988786;28;20495;-64
2023/08/10 03:49:36;;;;;;;9.03;5.93;;;15.80;33.10;;;;;;4989004;28;20461;-64
2023/08/10 03:52:03;;;;;;;7.87;5.53;;;15.80;33.10;;;;;;4988747;28;20672;-63
2023/08/10 03:54:31;;;;;;;7.87;6.00;;;15.70;33.40;;;;;;4986152;28;20531;-63
2023/08/10 03:56:58;;;;;;;8.10;4.77;;;15.70;33.50;;;;;;4986399;28;20460;-64
2023/08/10 03:59:24;;;;;;;7.07;4.10;;;15.70;33.40;;;;;;4989414;28;20460;-64
2023/08/10 04:01:52;;;;;;;7.33;5.60;;;15.70;33.30;;;;;;4987862;28;20480;-63
2023/08/10 04:04:19;;;;;;;9.70;5.27;;;15.70;33.40;;;;;;4987777;28;20492;-63
2023/08/10 04:06:46;;;;;;;6.70;4.33;;;15.70;33.40;;;;;;4988346;28;20484;-64
2023/08/10 04:09:13;;;;;;;8.60;5.17;;;15.70;33.40;;;;;;4989925;28;20467;-64
2023/08/10 04:11:40;;;;;;;6.87;4.63;;;15.60;33.40;;;;;;4988787;28;20467;-66
2023/08/10 04:14:06;;;;;;;8.10;4.77;;;15.60;33.40;;;;;;4987470;28;20471;-66
2023/08/10 04:16:33;;;;;;;7.73;4.80;;;15.60;33.80;;;;;;4985722;28;20463;-68
2023/08/10 04:19:01;;;;;;;7.00;4.60;;;15.60;33.90;;;;;;4985480;28;21060;-67
2023/08/10 04:21:28;;;;;;;6.73;4.60;;;15.60;34.00;;;;;;4979428;28;20984;-67
2023/08/10 04:23:55;;;;;;;9.00;4.90;;;15.50;34.10;;;;;;4986587;28;20499;-68
2023/08/10 04:26:21;;;;;;;6.60;4.30;;;15.50;34.20;;;;;;4992180;28;20976;-67
2023/08/10 04:28:48;;;;;;;8.97;4.57;;;15.50;34.30;;;;;;4983624;28;20588;-64
2023/08/10 04:31:15;;;;;;;8.50;4.37;;;15.50;34.30;;;;;;4974479;28;20480;-67
2023/08/10 04:33:42;;;;;;;6.23;4.20;;;15.50;34.50;;;;;;4981316;28;20832;-66
2023/08/10 04:36:10;;;;;;;9.80;4.57;;;15.50;34.50;;;;;;4982631;28;20477;-68
2023/08/10 04:38:36;;;;;;;6.30;4.43;;;15.50;34.50;;;;;;4982430;28;20491;-67
2023/08/10 04:41:03;;;;;;;6.97;3.77;;;15.50;34.40;;;;;;4985167;28;20471;-67
2023/08/10 04:43:30;;;;;;;8.50;4.30;;;15.50;34.60;;;;;;4984134;28;20477;-68
2023/08/10 04:45:56;;;;;;;6.73;3.50;;;15.50;34.50;;;;;;4985181;28;21011;-67
2023/08/10 04:48:23;;;;;;;7.03;3.90;;;15.50;34.50;;;;;;4988832;28;20480;-67
2023/08/10 04:50:50;;;;;;;6.60;4.67;;;15.50;34.50;;;;;;4987658;28;20473;-66
2023/08/10 04:53:18;;;;;;;5.90;3.93;;;15.50;34.50;;;;;;4986998;28;20461;-66
2023/08/10 04:55:45;;;;;;;6.30;3.47;;;15.50;34.50;;;;;;4985998;28;20875;-67
2023/08/10 04:58:11;;;;;;;5.30;3.70;;;15.50;34.50;;;;;;4986157;28;20488;-67
2023/08/10 05:00:38;;;;;;;8.40;4.63;;;15.50;34.40;;;;;;4983990;28;20481;-68
2023/08/10 05:03:05;;;;;;;6.33;3.50;;;15.50;34.40;;;;;;4984515;28;20479;-69
2023/08/10 05:05:32;;;;;;;7.10;4.30;;;15.50;34.50;;;;;;4987313;28;20480;-68
2023/08/10 05:07:59;;;;;;;6.97;3.80;;;15.60;34.50;;;;;;4984990;28;21040;-69
2023/08/10 05:10:27;;;;;;;7.70;4.40;;;15.60;34.40;;;;;;4981860;28;20471;-69
2023/08/10 05:12:53;;;;;;;7.23;4.17;;;15.70;34.30;;;;;;4982640;28;20499;-65
2023/08/10 05:15:20;;;;;;;7.13;3.63;;;15.80;34.10;;;;;;4990554;28;20474;-65
2023/08/10 05:17:47;;;;;;;8.53;3.70;;;16.40;33.40;;;;;;4992199;28;20496;-67
2023/08/10 05:20:14;;;;;;;6.60;3.90;;;17.50;31.00;;;;;;4984356;28;20486;-67
2023/08/10 05:22:42;;;;;;;6.90;3.33;;;18.70;27.10;;;;;;4980528;28;20499;-68
2023/08/10 05:25:10;;;;;;;6.50;3.97;;;19.90;22.80;;;;;;4984055;28;20531;-68
2023/08/10 05:27:38;;;;;;;5.20;3.20;;;21.00;19.40;;;;;;4984647;28;20493;-67
2023/08/10 05:30:11;;;;;;;4.80;3.27;;;22.10;16.40;;;;;;4986657;28;20464;-68
2023/08/10 05:32:39;;;;;;;6.27;3.30;;;23.10;13.60;;;;;;4991842;28;20515;-68
2023/08/10 05:35:06;;;;;;;6.07;3.00;;;24.20;11.20;;;;;;4990677;28;20890;-66
2023/08/10 05:37:34;;;;;;;5.77;3.60;;;25.10;8.70;;;;;;4991319;28;20562;-66
2023/08/10 05:40:00;;;;;;;5.37;3.00;;;25.10;7.00;;;;;;4986016;28;20488;-67
2023/08/10 05:42:27;;;;;;;6.57;3.13;;;24.30;7.80;;;;;;4981489;28;20484;-67
2023/08/10 05:44:55;;;;;;;6.80;2.87;;;23.40;9.30;;;;;;4978450;28;20517;-65
2023/08/10 05:47:22;;;;;;;5.33;2.90;;;22.70;10.60;;;;;;4984435;28;20488;-66
2023/08/10 05:49:49;;;;;;;5.23;2.70;;;22.50;11.90;;;;;;4988591;28;20961;-66
2023/08/10 05:52:16;;;;;;;4.87;3.00;;;23.90;10.80;;;;;;4986969;28;20464;-67
2023/08/10 05:54:42;;;;;;;6.80;2.87;;;25.80;6.30;;;;;;4986552;28;20461;-67
2023/08/10 05:57:09;;;;;;;6.33;2.63;;;27.40;3.10;;;;;;4986888;28;21112;-67
2023/08/10 05:59:36;;;;;;;5.80;2.50;;;28.80;1.00;;;;;;4977835;28;20486;-67
2023/08/10 06:02:04;;;;;;;5.27;2.30;;;30.10;1.00;;;;;;4989645;28;20483;-67
2023/08/10 06:04:31;;;;;;;4.63;2.33;;;31.10;1.00;;;;;;4988338;28;20486;-66
2023/08/10 06:06:58;;;;;;;6.37;2.37;;;32.00;1.00;;;;;;4988723;28;20941;-67
2023/08/10 06:09:24;;;;;;;7.30;2.77;;;32.90;1.00;;;;;;4983503;28;20476;-69
2023/08/10 06:11:51;;;;;;;4.20;2.50;;;33.80;1.00;;;;;;4993234;28;20493;-68
2023/08/10 06:14:19;;;;;;;4.37;2.33;;;34.70;1.00;;;;;;4990759;28;20452;-68
2023/08/10 06:16:45;;;;;;;4.07;2.27;;;35.10;1.00;;;;;;4982323;28;20468;-68
2023/08/10 06:19:14;;;;;;;3.70;2.00;;;35.40;1.00;;;;;;4988813;28;20468;-69
2023/08/10 06:21:41;;;;;;;6.50;2.27;;;36.20;1.00;;;;;;4988854;28;20852;-68
2023/08/10 06:24:09;;;;;;;7.43;2.30;;;37.10;1.00;;;;;;4987377;28;20472;-68
2023/08/10 06:26:36;;;;;;;5.50;2.20;;;37.70;1.00;;;;;;4989184;28;20831;-68
2023/08/10 06:29:03;;;;;;;4.53;2.10;;;38.20;1.00;;;;;;4990918;28;20870;-69
2023/08/10 06:31:30;;;;;;;4.23;2.20;;;39.00;1.00;;;;;;4992560;28;20481;-69
2023/08/10 06:33:57;;;;;;;5.07;2.10;;;39.80;1.00;;;;;;4986574;28;20555;-68
2023/08/10 06:36:27;;;;;;;4.43;1.57;;;40.30;1.00;;;;;;4990314;28;20541;-69
2023/08/10 06:38:54;;;;;;;3.50;1.83;;;40.80;1.00;;;;;;4986944;28;20634;-69
2023/08/10 06:41:21;;;;;;;4.87;1.90;;;41.50;1.00;;;;;;4984266;28;20478;-69
2023/08/10 06:43:49;;;;;;;3.40;1.83;;;42.20;1.00;;;;;;4985952;28;20520;-69
2023/08/10 06:46:15;;;;;;;3.40;1.70;;;42.70;1.00;;;;;;4985151;28;20464;-68
2023/08/10 06:48:42;;;;;;;6.50;1.93;;;43.20;1.00;;;;;;4987503;28;20492;-69
2023/08/10 06:51:09;;;;;;;3.20;1.63;;;43.70;1.00;;;;;;4982395;28;21055;-68
2023/08/10 06:53:38;;;;;;;3.23;1.50;;;44.20;1.00;;;;;;4983432;28;20468;-68
2023/08/10 06:56:06;;;;;;;4.43;1.80;;;44.70;1.00;;;;;;4981256;28;21071;-68
2023/08/10 06:58:33;;;;;;;7.47;1.63;;;45.10;1.00;;;;;;4984129;28;21079;-66
2023/08/10 07:01:00;;;;;;;3.77;1.80;;;45.60;1.00;;;;;;4982772;28;20481;-66
2023/08/10 07:03:27;;;;;;;3.27;1.63;;;46.10;1.00;;;;;;4982801;28;20562;-65
2023/08/10 07:05:55;;;;;;;3.83;1.63;;;46.50;1.00;;;;;;4993418;28;20487;-65
2023/08/10 07:08:22;;;;;;;3.20;1.80;;;47.00;1.00;;;;;;4984337;28;20496;-66
2023/08/10 07:10:50;;;;;;;3.23;1.70;;;47.30;1.00;;;;;;4987430;28;20753;-67
2023/08/10 07:13:17;;;;;;;3.30;1.80;;;47.50;1.00;;;;;;4986856;28;20482;-66
2023/08/10 07:15:45;;;;;;;3.47;1.47;;;47.90;1.00;;;;;;4983192;28;20468;-66
2023/08/10 07:18:14;;;;;;;3.80;2.10;;;47.80;1.00;;;;;;4985650;28;20511;-66
2023/08/10 07:20:41;;;;;;;3.50;1.90;;;46.60;1.00;;;;;;4985516;28;20576;-66
2023/08/10 07:23:08;;;;;;;6.07;2.50;;;45.30;1.00;;;;;;4987536;28;20496;-65
2023/08/10 07:25:36;;;;;;;3.70;2.00;;;43.70;1.00;;;;;;4982605;28;20472;-65
2023/08/10 07:28:05;;;;;;;6.03;2.30;;;42.40;1.00;;;;;;4981018;28;20552;-64
2023/08/10 07:30:32;;;;;;;5.07;2.20;;;41.50;1.00;;;;;;4981376;28;20852;-64
2023/08/10 07:32:58;;;;;;;4.70;2.20;;;40.20;1.00;;;;;;4985861;28;20480;-64
2023/08/10 07:35:26;;;;;;;4.10;2.60;;;38.70;1.00;;;;;;4988996;28;20880;-64
2023/08/10 07:37:53;;;;;;;4.43;2.20;;;37.10;1.00;;;;;;4988764;28;20535;-64
2023/08/10 07:40:20;;;;;;;3.67;2.03;;;35.70;1.00;;;;;;4982741;28;20968;-66
2023/08/10 07:42:47;;;;;;;5.47;2.73;;;34.50;1.00;;;;;;4982875;28;20480;-67
2023/08/10 07:45:15;;;;;;;4.30;2.40;;;33.40;1.00;;;;;;4988251;28;21067;-67
2023/08/10 07:47:41;;;;;;;4.30;2.23;;;32.50;1.00;;;;;;4986041;28;20493;-67
2023/08/10 07:50:09;;;;;;;4.87;2.80;;;31.80;1.00;;;;;;4983454;28;21032;-66
2023/08/10 07:52:36;;;;;;;4.33;2.63;;;31.20;1.00;;;;;;4986210;28;20544;-66
2023/08/10 07:55:02;;;;;;;4.90;2.60;;;30.80;1.00;;;;;;4990936;28;20461;-66
2023/08/10 07:57:30;;;;;;;8.20;2.57;;;30.40;1.00;;;;;;4992255;28;20485;-66
2023/08/10 08:00:00;;;;;;;5.17;2.50;;;30.20;1.00;;;;;;4980625;28;20472;-68
2023/08/10 08:02:28;;;;;;;5.10;2.53;;;30.30;1.00;;;;;;4981385;28;22776;-66
2023/08/10 08:04:55;;;;;;;6.00;3.00;;;30.40;1.00;;;;;;4981477;28;20488;-67
2023/08/10 08:07:23;;;;;;;4.33;2.33;;;30.50;1.00;;;;;;4987331;28;20997;-64
2023/08/10 08:09:49;;;;;;;4.53;2.57;;;30.60;1.00;;;;;;4977255;28;20464;-65
2023/08/10 08:12:16;;;;;;;4.77;2.77;;;31.40;1.00;;;;;;4986905;28;20477;-67
2023/08/10 08:14:43;;;;;;;5.80;2.73;;;31.60;1.00;;;;;;4987797;28;20465;-67
2023/08/10 08:17:10;;;;;;;7.40;3.67;;;31.40;1.00;;;;;;4982039;28;20488;-68
2023/08/10 08:19:38;;;;;;;6.40;3.30;;;30.70;1.00;;;;;;4982273;28;22392;-67
2023/08/10 08:22:04;;;;;;;7.10;3.03;;;30.20;1.00;;;;;;4985694;28;20469;-67
2023/08/10 08:24:31;;;;;;;8.13;4.10;;;29.70;1.00;;;;;;4984865;28;20481;-67
2023/08/10 08:26:58;;;;;;;6.77;3.10;;;29.50;1.00;;;;;;4980286;28;20990;-67
2023/08/10 08:29:25;;;;;;;8.20;3.10;;;29.50;1.00;;;;;;4983651;28;20476;-68
2023/08/10 08:31:51;;;;;;;5.07;3.20;;;29.60;1.00;;;;;;4983106;28;20480;-68
2023/08/10 08:34:18;;;;;;;5.10;3.07;;;29.70;1.00;;;;;;4987645;28;20461;-67
2023/08/10 08:36:47;;;;;;;5.47;3.00;;;29.80;1.00;;;;;;4992208;28;20467;-67
2023/08/10 08:39:14;;;;;;;4.30;2.20;;;29.90;1.00;;;;;;4985331;28;20461;-67
2023/08/10 08:41:42;;;;;;;5.87;2.80;;;30.00;1.00;;;;;;4984203;28;20472;-67
2023/08/10 08:44:10;;;;;;;6.40;2.20;;;29.70;1.00;;;;;;4986013;28;20480;-67
2023/08/10 08:46:40;;;;;;;7.00;2.90;;;29.60;1.00;;;;;;4992783;28;20474;-67
2023/08/10 08:49:07;;;;;;;5.43;2.50;;;29.70;1.00;;;;;;4985414;28;20885;-67
2023/08/10 08:51:35;;;;;;;5.23;2.40;;;30.10;1.00;;;;;;4987886;28;20483;-66
2023/08/10 08:54:04;;;;;;;4.33;2.43;;;30.40;1.00;;;;;;4980267;28;20496;-67
2023/08/10 08:56:31;;;;;;;4.53;2.30;;;30.40;1.00;;;;;;4977452;28;21243;-68
2023/08/10 08:58:57;;;;;;;4.07;2.27;;;31.10;1.00;;;;;;4982647;28;20570;-68
2023/08/10 09:01:25;;;;;;;4.40;2.50;;;32.00;1.00;;;;;;4985394;28;21372;-68
2023/08/10 09:03:51;;;;;;;4.43;2.30;;;32.60;1.00;;;;;;4985784;28;21281;-68
2023/08/10 09:06:18;;;;;;;4.73;2.50;;;33.10;1.00;;;;;;4981828;28;20476;-68
2023/08/10 09:08:45;;;;;;;4.40;1.60;;;33.80;1.00;;;;;;4979938;28;20484;-68
2023/08/10 09:11:13;;;;;;;4.47;2.27;;;34.90;1.00;;;;;;4987917;28;20479;-67
2023/08/10 09:13:40;;;;;;;4.07;1.97;;;35.60;1.00;;;;;;4983037;28;20472;-67
2023/08/10 09:16:09;;;;;;;4.60;1.90;;;36.20;1.00;;;;;;4979285;28;20475;-67
2023/08/10 09:18:37;;;;;;;5.07;1.97;;;37.10;1.00;;;;;;4985713;28;20492;-67
2023/08/10 09:21:13;;;;;;;4.30;2.00;;;38.10;1.00;;;;;;4983854;28;20460;-65
2023/08/10 09:23:41;;;;;;;4.73;2.17;;;39.10;1.00;;;;;;4979193;28;20480;-67
2023/08/10 09:26:09;;;;;;;5.10;2.33;;;39.80;1.00;;;;;;4985991;28;20534;-68
2023/08/10 09:28:38;;;;;;;6.63;2.17;;;40.30;1.00;;;;;;4978171;28;20505;-67
2023/08/10 09:31:05;;;;;;;3.90;1.87;;;41.70;1.00;;;;;;4978732;28;20555;-67
2023/08/10 09:33:33;;;;;;;3.90;2.20;;;42.70;1.00;;;;;;4982680;28;20976;-67
2023/08/10 09:36:01;;;;;;;5.03;2.13;;;43.70;1.00;;;;;;4985764;28;20472;-67
2023/08/10 09:38:27;;;;;;;3.53;1.87;;;44.30;1.00;;;;;;4985336;28;20809;-68
2023/08/10 09:41:08;;;;;;;3.73;1.80;;;45.60;1.00;;;;;;4987000;28;20908;-67
2023/08/10 09:43:38;;;;;;;3.27;1.60;;;45.90;1.00;;;;;;4985806;28;20464;-67
2023/08/10 09:46:06;;;;;;;5.80;2.60;;;46.80;1.00;;;;;;4983914;28;20485;-69
2023/08/10 09:48:36;;;;;;;3.53;1.70;;;46.90;1.00;;;;;;4985173;28;20493;-69
2023/08/10 09:51:04;;;;;;;4.00;1.90;;;46.00;1.00;;;;;;4998179;22;20492;-69
2023/08/10 09:53:32;;;;;;;5.53;2.37;;;44.70;1.00;;;;;;4986230;28;20829;-66
2023/08/10 09:55:59;;;;;;;4.30;2.00;;;43.00;1.00;;;;;;4987920;28;20460;-66
2023/08/10 09:58:26;;;;;;;3.30;1.67;;;41.50;1.00;;;;;;4983344;28;20496;-69
2023/08/10 10:00:55;;;;;;;4.70;1.40;;;41.10;1.00;;;;;;4985976;28;20473;-69
2023/08/10 10:03:23;;;;;;;3.67;1.67;;;41.40;1.00;;;;;;4992324;28;20475;-66
2023/08/10 10:05:51;;;;;;;3.73;1.87;;;42.00;1.00;;;;;;4986748;28;20488;-66
2023/08/10 10:08:18;;;;;;;4.00;1.93;;;42.30;1.00;;;;;;4987247;28;20484;-66
2023/08/10 10:10:45;;;;;;;3.60;2.17;;;42.20;1.00;;;;;;4989022;28;20837;-67
2023/08/10 10:13:13;;;;;;;3.93;2.30;;;42.20;1.00;;;;;;4990898;28;20476;-68
2023/08/10 10:15:40;;;;;;;4.30;2.00;;;42.00;1.00;;;;;;4983929;28;20464;-68
2023/08/10 10:18:09;;;;;;;4.13;2.37;;;41.90;1.00;;;;;;4991249;28;20480;-66
2023/08/10 10:20:40;;;;;;;4.20;2.40;;;41.90;1.00;;;;;;4986624;28;20495;-66
2023/08/10 10:23:14;;;;;;;6.23;2.30;;;41.80;1.00;;;;;;4980321;28;20478;-65
2023/08/10 10:25:42;;;;;;;3.60;2.10;;;41.60;1.00;;;;;;4980219;28;21123;-67
2023/08/10 10:28:16;;;;;;;5.00;2.33;;;41.10;1.00;;;;;;4990472;28;20492;-66
2023/08/10 10:30:55;;;;;;;3.83;2.23;;;40.40;1.00;;;;;;4983965;28;20465;-66
2023/08/10 10:33:25;;;;;;;4.03;2.20;;;39.10;1.00;;;;;;4986862;28;20464;-69
2023/08/10 10:36:09;;;;;;;4.00;2.27;;;38.30;1.00;;;;;;4985843;28;20497;-70
2023/08/10 10:38:37;;;;;;;3.93;2.50;;;37.30;1.00;;;;;;4986724;28;20559;-72
2023/08/10 10:41:14;;;;;;;4.17;2.80;;;36.50;1.00;;;;;;4995126;28;20471;-69
2023/08/10 10:43:40;;;;;;;4.73;2.60;;;35.70;1.00;;;;;;4990352;28;20467;-73
2023/08/10 10:46:07;;;;;;;6.43;3.00;;;34.70;1.00;;;;;;4990504;28;20489;-72
2023/08/10 10:48:37;;;;;;;5.70;2.80;;;33.90;1.00;;;;;;4990868;28;20492;-69
2023/08/10 10:51:05;;;;;;;4.40;2.60;;;33.50;1.00;;;;;;4989597;28;20464;-67
2023/08/10 10:53:33;;;;;;;4.37;2.53;;;33.00;1.00;;;;;;4986177;28;20475;-68
2023/08/10 10:56:01;;;;;;;5.77;2.90;;;32.70;1.00;;;;;;4989326;28;21245;-68
2023/08/10 10:58:31;;;;;;;4.67;2.90;;;32.20;1.00;;;;;;4983222;28;20520;-68
2023/08/10 11:00:57;;;;;;;4.77;2.57;;;31.80;1.00;;;;;;4983182;28;20900;-68
2023/08/10 11:03:28;;;;;;;3.90;2.47;;;31.50;1.00;;;;;;4987316;28;20472;-68
2023/08/10 11:05:56;;;;;;;5.40;2.67;;;31.30;1.00;;;;;;4987318;28;20481;-68
2023/08/10 11:08:24;;;;;;;5.37;2.43;;;31.10;1.00;;;;;;4985793;28;20579;-68
2023/08/10 11:10:51;;;;;;;4.50;2.63;;;30.80;1.00;;;;;;4983195;28;20491;-68
2023/08/10 11:13:18;;;;;;;6.87;2.80;;;30.50;1.00;;;;;;4984620;28;20531;-68
2023/08/10 11:15:46;;;;;;;4.60;2.20;;;30.30;1.00;;;;;;4988050;28;20465;-68
2023/08/10 11:18:14;;;;;;;4.40;2.23;;;30.10;1.00;;;;;;4983405;28;21004;-68
2023/08/10 11:20:45;;;;;;;5.30;3.13;;;29.90;1.00;;;;;;4981751;28;20560;-69
2023/08/10 11:23:13;;;;;;;6.80;2.67;;;29.50;1.00;;;;;;4983940;28;20472;-68
2023/08/10 11:25:49;;;;;;;4.93;2.33;;;29.20;1.00;;;;;;4986891;28;20493;-67
2023/08/10 11:28:16;;;;;;;4.40;2.33;;;28.90;1.00;;;;;;4984208;28;21300;-67
2023/08/10 11:30:44;;;;;;;4.87;2.90;;;28.60;1.00;;;;;;4979135;28;20904;-68
2023/08/10 11:33:11;;;;;;;5.03;2.70;;;28.20;1.00;;;;;;4986568;28;20472;-69
2023/08/10 11:35:37;;;;;;;4.87;2.30;;;28.00;1.00;;;;;;4984323;28;21041;-68
2023/08/10 11:38:05;;;;;;;6.10;2.50;;;27.90;1.00;;;;;;4984711;28;20484;-68
2023/08/10 11:40:33;;;;;;;4.63;2.27;;;27.80;1.00;;;;;;4986535;28;20986;-68
2023/08/10 11:43:10;;;;;;;6.10;2.30;;;27.80;1.00;;;;;;4984699;28;20473;-68
2023/08/10 11:45:38;;;;;;;4.73;2.53;;;27.70;1.00;;;;;;4988200;28;20847;-68
2023/08/10 11:48:07;;;;;;;4.80;2.53;;;27.60;1.00;;;;;;4984331;28;20542;-68
2023/08/10 11:50:34;;;;;;;4.50;2.50;;;27.60;1.00;;;;;;4984846;28;21636;-69
2023/08/10 11:53:10;;;;;;;5.03;2.80;;;27.40;1.00;;;;;;4986803;28;20464;-69
2023/08/10 11:55:42;;;;;;;4.63;2.77;;;27.30;1.00;;;;;;4985473;28;20465;-68
2023/08/10 11:58:09;;;;;;;4.83;2.50;;;27.20;1.00;;;;;;4981419;28;20516;-68
2023/08/10 12:00:38;;;;;;;4.47;2.83;;;27.00;1.00;;;;;;4979379;28;20528;-68
2023/08/10 12:03:07;;;;;;;4.77;2.30;;;26.70;1.00;;;;;;4981430;28;22987;-67
2023/08/10 12:05:36;;;;;;;5.80;2.77;;;26.70;1.00;;;;;;4982260;28;20519;-68
2023/08/10 12:08:04;;;;;;;4.70;2.70;;;26.60;1.00;;;;;;4979339;28;20862;-68
2023/08/10 12:10:41;;;;;;;4.67;2.57;;;26.60;1.00;;;;;;4986525;28;20492;-68
2023/08/10 12:13:10;;;;;;;5.30;2.37;;;26.70;1.00;;;;;;4984130;28;20977;-68
2023/08/10 12:15:38;;;;;;;4.47;2.23;;;26.70;1.00;;;;;;4984434;28;20467;-68
2023/08/10 12:18:06;;;;;;;5.40;3.10;;;26.60;1.00;;;;;;4988107;28;20480;-68
2023/08/10 12:20:33;;;;;;;4.83;2.50;;;26.60;1.00;;;;;;4987588;28;20492;-68
2023/08/10 12:22:59;;;;;;;6.47;2.90;;;26.70;1.00;;;;;;4985698;28;20460;-65
2023/08/10 12:25:26;;;;;;;4.70;2.30;;;26.60;1.00;;;;;;4985388;28;20477;-67
2023/08/10 12:27:54;;;;;;;4.67;2.63;;;26.60;1.00;;;;;;4984024;28;20488;-68
2023/08/10 12:30:21;;;;;;;5.27;2.90;;;26.40;1.00;;;;;;4982873;28;20465;-68
2023/08/10 12:32:48;;;;;;;4.60;2.20;;;26.30;1.00;;;;;;4983716;28;20461;-70
2023/08/10 12:35:15;;;;;;;4.10;2.47;;;26.10;1.00;;;;;;4985402;28;20825;-70
2023/08/10 12:37:42;;;;;;;4.37;2.53;;;25.90;1.00;;;;;;4986213;28;20500;-69
2023/08/10 12:40:10;;;;;;;5.13;2.47;;;25.70;1.00;;;;;;4981981;28;20839;-68
2023/08/10 12:42:38;;;;;;;5.67;2.83;;;25.50;1.00;;;;;;4979766;28;20473;-67
2023/08/10 12:45:09;;;;;;;4.50;2.50;;;25.40;1.00;;;;;;4990204;28;20493;-69
2023/08/10 12:47:36;;;;;;;4.83;2.70;;;25.20;1.00;;;;;;4980310;28;20566;-70
2023/08/10 12:50:02;;;;;;;4.70;2.50;;;25.10;1.00;;;;;;4987059;28;21281;-76
2023/08/10 12:52:30;;;;;;;4.80;2.53;;;25.10;1.00;;;;;;4988170;28;20508;-69
2023/08/10 12:54:56;;;;;;;5.37;2.27;;;25.00;1.00;;;;;;4986357;28;21060;-68